createdAt,value
2023-03-03T00:02:35.175Z,32.70
2023-03-03T00:12:46.689Z,32.90
2023-03-03T00:22:51.342Z,33.60
2023-03-03T00:32:55.666Z,33.20
2023-03-03T00:43:01.757Z,33.03
2023-03-03T00:53:07.569Z,33.70
2023-03-03T01:03:15.659Z,32.00
2023-03-03T01:13:21.524Z,35.03
2023-03-03T01:23:26.174Z,33.13
2023-03-03T01:33:29.334Z,34.07
2023-03-03T01:43:35.160Z,33.00
2023-03-03T01:53:43.312Z,35.27
2023-03-03T02:03:48.446Z,33.23
2023-03-03T02:13:51.761Z,34.27
2023-03-03T02:24:04.483Z,32.77
2023-03-03T02:34:10.309Z,33.03
2023-03-03T02:44:15.946Z,32.50
2023-03-03T02:54:23.580Z,33.53
2023-03-03T03:04:28.985Z,32.17
2023-03-03T03:14:33.864Z,32.17
2023-03-03T03:24:37.165Z,32.40
2023-03-03T03:34:45.374Z,32.70
2023-03-03T03:44:49.216Z,32.43
2023-03-03T03:54:53.983Z,33.50
2023-03-03T04:04:57.379Z,33.17
2023-03-03T04:15:02.442Z,32.57
2023-03-03T04:25:07.875Z,34.50
2023-03-03T04:35:17.621Z,32.30
2023-03-03T04:45:21.088Z,33.27
2023-03-03T04:55:28.058Z,31.87
2023-03-03T05:05:31.504Z,33.43
2023-03-03T05:15:36.198Z,32.07
2023-03-03T05:25:41.004Z,32.60
2023-03-03T05:35:46.409Z,32.07
2023-03-03T05:45:49.616Z,34.70
2023-03-03T05:55:54.262Z,32.73
2023-03-03T06:05:57.418Z,33.63
2023-03-03T06:16:02.140Z,33.80
2023-03-03T06:26:05.732Z,34.90
2023-03-03T06:36:11.104Z,36.17
2023-03-03T06:46:14.528Z,34.50
2023-03-03T06:56:19.758Z,33.83
2023-03-03T07:06:25.976Z,33.73
2023-03-03T07:16:30.630Z,31.13
2023-03-03T07:26:34.524Z,32.60
2023-03-03T07:36:39.060Z,34.17
2023-03-03T07:46:43.513Z,30.83
2023-03-03T07:56:48.806Z,31.70
2023-03-03T08:06:54.377Z,30.80
2023-03-03T08:17:01.697Z,31.83
2023-03-03T08:27:05.260Z,30.77
2023-03-03T08:37:09.837Z,33.50
2023-03-03T08:47:13.027Z,32.53
2023-03-03T08:57:17.634Z,33.47
2023-03-03T09:07:20.856Z,33.00
2023-03-03T09:17:33.740Z,31.97
2023-03-03T09:27:38.497Z,32.80
2023-03-03T09:37:44.526Z,33.13
2023-03-03T09:48:10.599Z,31.40
2023-03-03T09:58:28.669Z,29.70
2023-03-03T10:08:43.549Z,30.60
2023-03-03T10:18:58.923Z,30.77
2023-03-03T10:29:22.584Z,30.17
2023-03-03T10:39:46.890Z,30.33
2023-03-03T10:50:04.593Z,29.70
2023-03-03T11:00:24.930Z,28.63
2023-03-03T11:10:48.686Z,28.10
2023-03-03T11:21:03.841Z,28.67
2023-03-03T11:31:19.716Z,29.47
2023-03-03T11:41:37.093Z,29.77
2023-03-03T11:51:49.161Z,28.43
2023-03-03T12:01:57.031Z,28.67
2023-03-03T12:12:07.430Z,28.23
2023-03-03T12:22:29.558Z,29.63
2023-03-03T12:32:45.046Z,30.70
2023-03-03T12:43:15.283Z,30.43
2023-03-03T12:53:30.535Z,30.20
2023-03-03T13:03:54.945Z,29.13
2023-03-03T13:14:05.710Z,30.03
2023-03-03T13:24:20.373Z,29.30
2023-03-03T13:34:38.296Z,29.70
2023-03-03T13:44:44.603Z,29.87
2023-03-03T13:54:57.682Z,29.70
2023-03-03T14:05:06.085Z,26.63
2023-03-03T14:15:20.694Z,26.67
2023-03-03T14:25:25.360Z,26.43
2023-03-03T14:35:33.465Z,26.07
2023-03-03T14:45:39.652Z,26.83
2023-03-03T14:55:44.561Z,27.87
2023-03-03T15:05:53.575Z,30.17
2023-03-03T15:16:05.549Z,30.40
2023-03-03T15:26:15.941Z,29.17
2023-03-03T15:36:29.614Z,30.73
2023-03-03T15:46:47.705Z,30.00
2023-03-03T15:56:56.343Z,32.63
2023-03-03T16:07:10.244Z,31.70
2023-03-03T16:17:23.625Z,32.40
2023-03-03T16:27:35.412Z,30.67
2023-03-03T16:37:46.476Z,32.73
2023-03-03T16:48:11.555Z,32.13
2023-03-03T16:58:28.654Z,31.80
2023-03-03T17:09:08.403Z,32.40
2023-03-03T17:19:29.169Z,34.13
2023-03-03T17:29:51.876Z,32.50
2023-03-03T17:40:18.474Z,33.03
2023-03-03T17:50:57.722Z,33.47
2023-03-03T18:01:12.103Z,32.93
2023-03-03T18:11:30.351Z,35.17
2023-03-03T18:21:39.703Z,33.63
2023-03-03T18:31:50.646Z,34.03
2023-03-03T18:42:12.672Z,36.27
2023-03-03T18:52:21.845Z,28.57
2023-03-03T19:02:46.333Z,26.77
2023-03-03T19:12:54.223Z,27.00
2023-03-03T19:23:05.829Z,26.70
2023-03-03T19:33:40.618Z,25.77
2023-03-03T19:43:55.255Z,26.83
2023-03-03T19:54:08.801Z,27.43
2023-03-03T20:04:38.191Z,28.73
2023-03-03T20:14:49.127Z,29.13
2023-03-03T20:25:05.105Z,30.40
2023-03-03T20:35:21.926Z,36.27
2023-03-03T20:45:38.669Z,31.20
2023-03-03T20:55:56.307Z,31.43
2023-03-03T21:06:03.318Z,31.23
2023-03-03T21:16:12.421Z,30.93
2023-03-03T21:26:47.666Z,32.93
2023-03-03T21:36:52.156Z,31.70
2023-03-03T21:46:58.602Z,34.57
2023-03-03T21:57:02.012Z,34.33
2023-03-03T22:07:06.973Z,31.10
2023-03-03T22:17:11.338Z,32.07
2023-03-03T22:27:15.883Z,32.47
2023-03-03T22:37:19.096Z,30.47
2023-03-03T22:47:23.658Z,30.33
2023-03-03T22:57:26.974Z,31.43
2023-03-03T23:07:31.688Z,31.77
2023-03-03T23:17:34.877Z,31.17
2023-03-03T23:27:39.462Z,30.93
2023-03-03T23:37:42.674Z,30.40
2023-03-03T23:47:47.377Z,30.57
2023-03-03T23:57:50.621Z,27.63
